This is the latest recevied weather packets stored in our database for station/object KD5FHA. If no packets are shown the sender has not sent any weather packets the latest 1 day(s).
| Time | Temp. | Humidity | Pressure | Rain* | Wind** | Luminosity | Snow |
|---|---|---|---|---|---|---|---|
| 1778015356 | 32.78° C | 54% | 1004.8 hPa | 0 mm | 0.89 m/s, 197° | 792 W/m² | - |
| 1778015054 | 32.22° C | 56% | 1005.1 hPa | 0 mm | 2.68 m/s, 200° | 314 W/m² | - |
| 1778014750 | 33.33° C | 53% | 1005.4 hPa | 0 mm | 0.89 m/s, 212° | 866 W/m² | - |
| 1778014449 | 32.78° C | 53% | 1005.2 hPa | 0 mm | 0.45 m/s, 271° | 702 W/m² | - |
| 1778014145 | 32.78° C | 54% | 1005.3 hPa | 0 mm | 1.79 m/s, 203° | 887 W/m² | - |
| 1778013843 | 32.22° C | 55% | 1005.2 hPa | 0 mm | 1.34 m/s, 226° | 428 W/m² | - |
| 1778013540 | 30.56° C | 58% | 1005.3 hPa | 0 mm | 3.13 m/s, 212° | 801 W/m² | - |
| 1778013236 | 31.11° C | 58% | 1005.4 hPa | 0 mm | 4.02 m/s, 204° | 227 W/m² | - |
| 1778012932 | 31.67° C | 57% | 1005.5 hPa | 0 mm | 4.47 m/s, 202° | 382 W/m² | - |
| 1778012629 | 31.67° C | 57% | 1005.4 hPa | 0 mm | 1.79 m/s, 224° | 955 W/m² | - |
| 1778012326 | 31.67° C | 59% | 1005.5 hPa | 0 mm | 3.13 m/s, 197° | 566 W/m² | - |
| 1778012023 | 32.22° C | 56% | 1005.4 hPa | 0 mm | 0.89 m/s, 276° | 896 W/m² | - |
| 1778011721 | 31.67° C | 59% | 1005.6 hPa | 0 mm | 1.79 m/s, 219° | 963 W/m² | - |
| 1778011418 | 31.11° C | 59% | 1005.5 hPa | 0 mm | 4.47 m/s, 196° | 885 W/m² | - |
| 1778011113 | 31.11° C | 61% | 1005.8 hPa | 0 mm | 0.89 m/s, 219° | 921 W/m² | - |
| 1778010811 | 30.56° C | 61% | 1005.7 hPa | 0 mm | 4.92 m/s, 206° | 745 W/m² | - |
| 1778010508 | 30.56° C | 59% | 1005.6 hPa | 0 mm | 4.47 m/s, 209° | 615 W/m² | - |
| 1778010205 | 30.56° C | 60% | 1005.8 hPa | 0 mm | 4.47 m/s, 214° | 849 W/m² | - |
| 1778009900 | 30.56° C | 60% | 1005.6 hPa | 0 mm | 3.58 m/s, 214° | 598 W/m² | - |
| 1778009598 | 30.56° C | 60% | 1005.7 hPa | 0 mm | 2.24 m/s, 202° | 518 W/m² | - |
| 1778009296 | 30° C | 63% | 1005.8 hPa | 0 mm | 2.24 m/s, 224° | 858 W/m² | - |
| 1778008994 | 30.56° C | 63% | 1005.7 hPa | 0 mm | 2.24 m/s, 214° | 643 W/m² | - |
| 1778008691 | 30° C | 64% | 1005.7 hPa | 0 mm | 4.47 m/s, 211° | 891 W/m² | - |
| 1778008389 | 29.44° C | 64% | 1005.8 hPa | 0 mm | 5.81 m/s, 201° | 833 W/m² | - |
| 1778008086 | 29.44° C | 66% | 1006 hPa | 0 mm | 3.13 m/s, 208° | 602 W/m² | - |
* Rain latest hour (hover to see other rain measurements)
** Current wind speed in m/s (hover to see current wind gust speed)